sensor_id;sensor_type;location;lat;lon;timestamp;P1;P2;P0
67892;PMS7003;54688;52.376;16.744;2023-03-07T00:01:29;59;46;
67892;PMS7003;54688;52.376;16.744;2023-03-07T00:04:31;64;42;
67892;PMS7003;54688;52.376;16.744;2023-03-07T00:07:34;64;46;
67892;PMS7003;54688;52.376;16.744;2023-03-07T00:10:36;64;45;
67892;PMS7003;54688;52.376;16.744;2023-03-07T00:13:38;60;44;
67892;PMS7003;54688;52.376;16.744;2023-03-07T00:16:40;55;41;
67892;PMS7003;54688;52.376;16.744;2023-03-07T00:19:43;55;42;
67892;PMS7003;54688;52.376;16.744;2023-03-07T00:22:45;59;42;
67892;PMS7003;54688;52.376;16.744;2023-03-07T00:25:55;61;44;
67892;PMS7003;54688;52.376;16.744;2023-03-07T00:28:56;66;42;
67892;PMS7003;54688;52.376;16.744;2023-03-07T00:31:59;52;39;
67892;PMS7003;54688;52.376;16.744;2023-03-07T00:35:00;49;38;
67892;PMS7003;54688;52.376;16.744;2023-03-07T00:38:02;53;40;
67892;PMS7003;54688;52.376;16.744;2023-03-07T00:41:06;55;43;
67892;PMS7003;54688;52.376;16.744;2023-03-07T00:44:08;54;35;
67892;PMS7003;54688;52.376;16.744;2023-03-07T00:50:09;57;39;
67892;PMS7003;54688;52.376;16.744;2023-03-07T00:53:12;62;43;
67892;PMS7003;54688;52.376;16.744;2023-03-07T00:56:16;55;38;
67892;PMS7003;54688;52.376;16.744;2023-03-07T00:59:19;59;43;
67892;PMS7003;54688;52.376;16.744;2023-03-07T01:02:22;42;34;
67892;PMS7003;54688;52.376;16.744;2023-03-07T01:05:24;46;34;
67892;PMS7003;54688;52.376;16.744;2023-03-07T01:08:26;48;36;
67892;PMS7003;54688;52.376;16.744;2023-03-07T01:11:30;49;33;
67892;PMS7003;54688;52.376;16.744;2023-03-07T01:14:32;38;35;
67892;PMS7003;54688;52.376;16.744;2023-03-07T01:17:34;43;33;
67892;PMS7003;54688;52.376;16.744;2023-03-07T01:20:37;40;33;
67892;PMS7003;54688;52.376;16.744;2023-03-07T01:23:40;35;31;
67892;PMS7003;54688;52.376;16.744;2023-03-07T01:26:42;47;35;
67892;PMS7003;54688;52.376;16.744;2023-03-07T01:29:45;50;37;
67892;PMS7003;54688;52.376;16.744;2023-03-07T01:32:47;51;36;
67892;PMS7003;54688;52.376;16.744;2023-03-07T01:35:54;45;33;
67892;PMS7003;54688;52.376;16.744;2023-03-07T01:38:58;40;28;
67892;PMS7003;54688;52.376;16.744;2023-03-07T01:42:00;42;32;
67892;PMS7003;54688;52.376;16.744;2023-03-07T01:45:06;43;35;
67892;PMS7003;54688;52.376;16.744;2023-03-07T01:48:08;41;35;
67892;PMS7003;54688;52.376;16.744;2023-03-07T01:51:11;50;36;
67892;PMS7003;54688;52.376;16.744;2023-03-07T01:54:15;45;36;
67892;PMS7003;54688;52.376;16.744;2023-03-07T01:57:23;43;39;
67892;PMS7003;54688;52.376;16.744;2023-03-07T02:00:26;45;33;
67892;PMS7003;54688;52.376;16.744;2023-03-07T02:03:31;37;31;
67892;PMS7003;54688;52.376;16.744;2023-03-07T02:06:37;50;36;
67892;PMS7003;54688;52.376;16.744;2023-03-07T02:09:40;48;35;
67892;PMS7003;54688;52.376;16.744;2023-03-07T02:12:44;41;35;
67892;PMS7003;54688;52.376;16.744;2023-03-07T02:15:46;42;34;
67892;PMS7003;54688;52.376;16.744;2023-03-07T02:18:49;39;35;
67892;PMS7003;54688;52.376;16.744;2023-03-07T02:21:55;42;36;
67892;PMS7003;54688;52.376;16.744;2023-03-07T02:25:02;51;37;
67892;PMS7003;54688;52.376;16.744;2023-03-07T02:28:08;42;33;
67892;PMS7003;54688;52.376;16.744;2023-03-07T02:31:13;47;38;
67892;PMS7003;54688;52.376;16.744;2023-03-07T02:34:18;44;35;
67892;PMS7003;54688;52.376;16.744;2023-03-07T02:37:21;35;30;
67892;PMS7003;54688;52.376;16.744;2023-03-07T02:40:28;37;30;
67892;PMS7003;54688;52.376;16.744;2023-03-07T02:43:32;49;37;
67892;PMS7003;54688;52.376;16.744;2023-03-07T02:46:34;41;31;
67892;PMS7003;54688;52.376;16.744;2023-03-07T02:49:37;43;34;
67892;PMS7003;54688;52.376;16.744;2023-03-07T02:52:40;50;38;
67892;PMS7003;54688;52.376;16.744;2023-03-07T02:55:42;44;33;
67892;PMS7003;54688;52.376;16.744;2023-03-07T02:58:44;45;36;
67892;PMS7003;54688;52.376;16.744;2023-03-07T03:01:47;48;35;
67892;PMS7003;54688;52.376;16.744;2023-03-07T03:04:49;48;35;
67892;PMS7003;54688;52.376;16.744;2023-03-07T03:07:51;53;39;
67892;PMS7003;54688;52.376;16.744;2023-03-07T03:10:54;50;38;
67892;PMS7003;54688;52.376;16.744;2023-03-07T03:13:56;53;37;
67892;PMS7003;54688;52.376;16.744;2023-03-07T03:16:58;45;35;
67892;PMS7003;54688;52.376;16.744;2023-03-07T03:22:59;52;37;
67892;PMS7003;54688;52.376;16.744;2023-03-07T03:26:05;60;42;
67892;PMS7003;54688;52.376;16.744;2023-03-07T03:32:07;57;43;
67892;PMS7003;54688;52.376;16.744;2023-03-07T03:35:10;64;45;
67892;PMS7003;54688;52.376;16.744;2023-03-07T03:38:12;62;47;
67892;PMS7003;54688;52.376;16.744;2023-03-07T03:41:14;68;49;
67892;PMS7003;54688;52.376;16.744;2023-03-07T03:44:16;60;42;
67892;PMS7003;54688;52.376;16.744;2023-03-07T03:47:18;63;44;
67892;PMS7003;54688;52.376;16.744;2023-03-07T03:50:20;54;38;
67892;PMS7003;54688;52.376;16.744;2023-03-07T03:53:22;51;42;
67892;PMS7003;54688;52.376;16.744;2023-03-07T03:56:25;55;43;
67892;PMS7003;54688;52.376;16.744;2023-03-07T03:59:28;57;41;
67892;PMS7003;54688;52.376;16.744;2023-03-07T04:02:30;56;40;
67892;PMS7003;54688;52.376;16.744;2023-03-07T04:05:32;54;41;
67892;PMS7003;54688;52.376;16.744;2023-03-07T04:08:36;64;48;
67892;PMS7003;54688;52.376;16.744;2023-03-07T04:11:38;62;44;
67892;PMS7003;54688;52.376;16.744;2023-03-07T04:14:40;59;42;
67892;PMS7003;54688;52.376;16.744;2023-03-07T04:17:43;57;43;
67892;PMS7003;54688;52.376;16.744;2023-03-07T04:20:46;53;42;
67892;PMS7003;54688;52.376;16.744;2023-03-07T04:23:48;62;48;
67892;PMS7003;54688;52.376;16.744;2023-03-07T04:26:51;56;43;
67892;PMS7003;54688;52.376;16.744;2023-03-07T04:29:53;54;42;
67892;PMS7003;54688;52.376;16.744;2023-03-07T04:32:55;46;35;
67892;PMS7003;54688;52.376;16.744;2023-03-07T04:35:57;41;32;
67892;PMS7003;54688;52.376;16.744;2023-03-07T04:38:59;42;32;
67892;PMS7003;54688;52.376;16.744;2023-03-07T04:42:01;40;23;
67892;PMS7003;54688;52.376;16.744;2023-03-07T04:45:04;44;26;
67892;PMS7003;54688;52.376;16.744;2023-03-07T04:48:06;28;26;
67892;PMS7003;54688;52.376;16.744;2023-03-07T04:51:09;25;23;
67892;PMS7003;54688;52.376;16.744;2023-03-07T04:54:12;30;24;
67892;PMS7003;54688;52.376;16.744;2023-03-07T04:57:14;41;31;
67892;PMS7003;54688;52.376;16.744;2023-03-07T05:00:17;34;27;
67892;PMS7003;54688;52.376;16.744;2023-03-07T05:03:21;39;32;
67892;PMS7003;54688;52.376;16.744;2023-03-07T05:06:23;37;25;
67892;PMS7003;54688;52.376;16.744;2023-03-07T05:09:25;33;31;
67892;PMS7003;54688;52.376;16.744;2023-03-07T05:12:28;28;26;
67892;PMS7003;54688;52.376;16.744;2023-03-07T05:15:30;36;24;
67892;PMS7003;54688;52.376;16.744;2023-03-07T05:18:32;33;25;
67892;PMS7003;54688;52.376;16.744;2023-03-07T05:21:34;43;32;
67892;PMS7003;54688;52.376;16.744;2023-03-07T05:24:36;32;24;
67892;PMS7003;54688;52.376;16.744;2023-03-07T05:27:39;34;26;
67892;PMS7003;54688;52.376;16.744;2023-03-07T05:30:40;35;24;
67892;PMS7003;54688;52.376;16.744;2023-03-07T05:33:43;41;29;
67892;PMS7003;54688;52.376;16.744;2023-03-07T05:36:45;32;24;
67892;PMS7003;54688;52.376;16.744;2023-03-07T05:39:47;35;32;
67892;PMS7003;54688;52.376;16.744;2023-03-07T05:42:49;37;29;
67892;PMS7003;54688;52.376;16.744;2023-03-07T05:45:51;38;28;
67892;PMS7003;54688;52.376;16.744;2023-03-07T05:48:53;37;32;
67892;PMS7003;54688;52.376;16.744;2023-03-07T05:51:55;40;32;
67892;PMS7003;54688;52.376;16.744;2023-03-07T05:54:57;48;35;
67892;PMS7003;54688;52.376;16.744;2023-03-07T05:57:59;47;34;
67892;PMS7003;54688;52.376;16.744;2023-03-07T06:01:02;25;24;
67892;PMS7003;54688;52.376;16.744;2023-03-07T06:04:04;34;27;
67892;PMS7003;54688;52.376;16.744;2023-03-07T06:07:06;43;33;
67892;PMS7003;54688;52.376;16.744;2023-03-07T06:10:09;41;32;
67892;PMS7003;54688;52.376;16.744;2023-03-07T06:13:14;40;32;
67892;PMS7003;54688;52.376;16.744;2023-03-07T06:16:16;33;32;
67892;PMS7003;54688;52.376;16.744;2023-03-07T06:19:18;44;34;
67892;PMS7003;54688;52.376;16.744;2023-03-07T06:22:20;50;37;
67892;PMS7003;54688;52.376;16.744;2023-03-07T06:25:22;50;37;
67892;PMS7003;54688;52.376;16.744;2023-03-07T06:28:24;41;35;
67892;PMS7003;54688;52.376;16.744;2023-03-07T06:31:26;51;34;
67892;PMS7003;54688;52.376;16.744;2023-03-07T06:34:29;44;35;
67892;PMS7003;54688;52.376;16.744;2023-03-07T06:37:31;49;34;
67892;PMS7003;54688;52.376;16.744;2023-03-07T06:40:35;49;38;
67892;PMS7003;54688;52.376;16.744;2023-03-07T06:43:37;52;36;
67892;PMS7003;54688;52.376;16.744;2023-03-07T06:46:39;49;34;
67892;PMS7003;54688;52.376;16.744;2023-03-07T06:49:42;46;37;
67892;PMS7003;54688;52.376;16.744;2023-03-07T06:52:44;47;36;
67892;PMS7003;54688;52.376;16.744;2023-03-07T06:55:47;57;40;
67892;PMS7003;54688;52.376;16.744;2023-03-07T06:58:49;49;36;
67892;PMS7003;54688;52.376;16.744;2023-03-07T07:01:51;47;34;
67892;PMS7003;54688;52.376;16.744;2023-03-07T07:04:54;54;36;
67892;PMS7003;54688;52.376;16.744;2023-03-07T07:07:56;54;37;
67892;PMS7003;54688;52.376;16.744;2023-03-07T07:10:58;48;34;
67892;PMS7003;54688;52.376;16.744;2023-03-07T07:14:00;54;39;
67892;PMS7003;54688;52.376;16.744;2023-03-07T07:17:02;54;37;
67892;PMS7003;54688;52.376;16.744;2023-03-07T07:20:06;52;38;
67892;PMS7003;54688;52.376;16.744;2023-03-07T07:23:09;46;37;
67892;PMS7003;54688;52.376;16.744;2023-03-07T07:26:11;48;37;
67892;PMS7003;54688;52.376;16.744;2023-03-07T07:29:13;51;39;
67892;PMS7003;54688;52.376;16.744;2023-03-07T07:32:15;41;32;
67892;PMS7003;54688;52.376;16.744;2023-03-07T07:35:17;49;34;
67892;PMS7003;54688;52.376;16.744;2023-03-07T07:38:19;50;36;
67892;PMS7003;54688;52.376;16.744;2023-03-07T07:41:21;42;33;
67892;PMS7003;54688;52.376;16.744;2023-03-07T07:44:24;53;39;
67892;PMS7003;54688;52.376;16.744;2023-03-07T07:47:26;50;36;
67892;PMS7003;54688;52.376;16.744;2023-03-07T07:50:28;54;39;
67892;PMS7003;54688;52.376;16.744;2023-03-07T07:53:30;53;40;
67892;PMS7003;54688;52.376;16.744;2023-03-07T07:56:33;52;37;
67892;PMS7003;54688;52.376;16.744;2023-03-07T07:59:34;39;34;
67892;PMS7003;54688;52.376;16.744;2023-03-07T08:02:37;37;33;
67892;PMS7003;54688;52.376;16.744;2023-03-07T08:05:42;44;34;
67892;PMS7003;54688;52.376;16.744;2023-03-07T08:08:45;53;38;
67892;PMS7003;54688;52.376;16.744;2023-03-07T08:11:47;47;33;
67892;PMS7003;54688;52.376;16.744;2023-03-07T08:14:49;53;36;
67892;PMS7003;54688;52.376;16.744;2023-03-07T08:17:51;51;39;
67892;PMS7003;54688;52.376;16.744;2023-03-07T08:20:58;58;44;
67892;PMS7003;54688;52.376;16.744;2023-03-07T08:24:00;53;44;
67892;PMS7003;54688;52.376;16.744;2023-03-07T08:27:02;57;43;
67892;PMS7003;54688;52.376;16.744;2023-03-07T08:30:07;58;43;
67892;PMS7003;54688;52.376;16.744;2023-03-07T08:33:09;55;40;
67892;PMS7003;54688;52.376;16.744;2023-03-07T08:36:12;57;40;
67892;PMS7003;54688;52.376;16.744;2023-03-07T08:39:14;53;39;
67892;PMS7003;54688;52.376;16.744;2023-03-07T08:42:16;49;40;
67892;PMS7003;54688;52.376;16.744;2023-03-07T08:45:18;53;38;
67892;PMS7003;54688;52.376;16.744;2023-03-07T08:51:19;50;36;
67892;PMS7003;54688;52.376;16.744;2023-03-07T08:54:21;41;33;
67892;PMS7003;54688;52.376;16.744;2023-03-07T08:57:24;44;35;
67892;PMS7003;54688;52.376;16.744;2023-03-07T09:00:25;47;35;
67892;PMS7003;54688;52.376;16.744;2023-03-07T09:03:27;48;35;
67892;PMS7003;54688;52.376;16.744;2023-03-07T09:06:29;42;30;
67892;PMS7003;54688;52.376;16.744;2023-03-07T09:09:31;43;35;
67892;PMS7003;54688;52.376;16.744;2023-03-07T09:12:33;47;35;
67892;PMS7003;54688;52.376;16.744;2023-03-07T09:15:37;40;32;
67892;PMS7003;54688;52.376;16.744;2023-03-07T09:18:39;38;31;
67892;PMS7003;54688;52.376;16.744;2023-03-07T09:21:41;42;32;
67892;PMS7003;54688;52.376;16.744;2023-03-07T09:24:43;46;35;
67892;PMS7003;54688;52.376;16.744;2023-03-07T09:27:45;47;35;
67892;PMS7003;54688;52.376;16.744;2023-03-07T09:30:47;48;36;
67892;PMS7003;54688;52.376;16.744;2023-03-07T09:33:48;44;34;
67892;PMS7003;54688;52.376;16.744;2023-03-07T09:36:51;50;33;
67892;PMS7003;54688;52.376;16.744;2023-03-07T09:39:52;46;38;
67892;PMS7003;54688;52.376;16.744;2023-03-07T09:43:00;45;35;
67892;PMS7003;54688;52.376;16.744;2023-03-07T09:46:10;49;37;
67892;PMS7003;54688;52.376;16.744;2023-03-07T09:49:17;48;35;
67892;PMS7003;54688;52.376;16.744;2023-03-07T09:52:22;43;35;
67892;PMS7003;54688;52.376;16.744;2023-03-07T09:55:26;51;38;
67892;PMS7003;54688;52.376;16.744;2023-03-07T09:58:29;49;33;
67892;PMS7003;54688;52.376;16.744;2023-03-07T10:01:33;45;35;
67892;PMS7003;54688;52.376;16.744;2023-03-07T10:04:42;43;35;
67892;PMS7003;54688;52.376;16.744;2023-03-07T10:07:45;47;36;
67892;PMS7003;54688;52.376;16.744;2023-03-07T10:10:52;45;34;
67892;PMS7003;54688;52.376;16.744;2023-03-07T10:14:12;43;35;
67892;PMS7003;54688;52.376;16.744;2023-03-07T10:17:26;45;36;
67892;PMS7003;54688;52.376;16.744;2023-03-07T10:20:38;46;34;
67892;PMS7003;54688;52.376;16.744;2023-03-07T10:23:57;49;33;
67892;PMS7003;54688;52.376;16.744;2023-03-07T10:27:04;41;31;
67892;PMS7003;54688;52.376;16.744;2023-03-07T10:30:12;49;35;
67892;PMS7003;54688;52.376;16.744;2023-03-07T10:33:16;48;38;
67892;PMS7003;54688;52.376;16.744;2023-03-07T10:36:21;44;34;
67892;PMS7003;54688;52.376;16.744;2023-03-07T10:39:26;45;32;
67892;PMS7003;54688;52.376;16.744;2023-03-07T10:42:34;47;38;
67892;PMS7003;54688;52.376;16.744;2023-03-07T10:45:36;47;39;
67892;PMS7003;54688;52.376;16.744;2023-03-07T10:48:41;45;36;
67892;PMS7003;54688;52.376;16.744;2023-03-07T10:51:50;39;33;
67892;PMS7003;54688;52.376;16.744;2023-03-07T10:55:29;36;33;
67892;PMS7003;54688;52.376;16.744;2023-03-07T10:58:32;50;38;
67892;PMS7003;54688;52.376;16.744;2023-03-07T11:01:35;42;35;
67892;PMS7003;54688;52.376;16.744;2023-03-07T11:04:42;45;36;
67892;PMS7003;54688;52.376;16.744;2023-03-07T11:07:45;44;35;
67892;PMS7003;54688;52.376;16.744;2023-03-07T11:10:47;47;34;
67892;PMS7003;54688;52.376;16.744;2023-03-07T11:14:04;44;37;
67892;PMS7003;54688;52.376;16.744;2023-03-07T11:17:17;42;35;
67892;PMS7003;54688;52.376;16.744;2023-03-07T11:20:21;43;35;
67892;PMS7003;54688;52.376;16.744;2023-03-07T11:23:25;47;37;
67892;PMS7003;54688;52.376;16.744;2023-03-07T11:26:31;45;32;
67892;PMS7003;54688;52.376;16.744;2023-03-07T11:29:33;46;37;
67892;PMS7003;54688;52.376;16.744;2023-03-07T11:32:38;36;32;
67892;PMS7003;54688;52.376;16.744;2023-03-07T11:35:52;36;31;
67892;PMS7003;54688;52.376;16.744;2023-03-07T11:39:00;46;33;
67892;PMS7003;54688;52.376;16.744;2023-03-07T11:42:13;47;35;
67892;PMS7003;54688;52.376;16.744;2023-03-07T11:45:28;52;39;
67892;PMS7003;54688;52.376;16.744;2023-03-07T11:48:41;43;34;
67892;PMS7003;54688;52.376;16.744;2023-03-07T11:51:53;49;33;
67892;PMS7003;54688;52.376;16.744;2023-03-07T11:55:06;45;33;
67892;PMS7003;54688;52.376;16.744;2023-03-07T11:58:26;45;36;
67892;PMS7003;54688;52.376;16.744;2023-03-07T12:01:36;51;36;
67892;PMS7003;54688;52.376;16.744;2023-03-07T12:04:57;35;31;
67892;PMS7003;54688;52.376;16.744;2023-03-07T12:08:46;39;32;
67892;PMS7003;54688;52.376;16.744;2023-03-07T12:12:03;39;32;
67892;PMS7003;54688;52.376;16.744;2023-03-07T12:15:23;45;35;
67892;PMS7003;54688;52.376;16.744;2023-03-07T12:18:42;39;33;
67892;PMS7003;54688;52.376;16.744;2023-03-07T12:22:02;45;33;
67892;PMS7003;54688;52.376;16.744;2023-03-07T12:25:18;38;32;
67892;PMS7003;54688;52.376;16.744;2023-03-07T12:28:25;39;31;
67892;PMS7003;54688;52.376;16.744;2023-03-07T12:31:31;47;31;
67892;PMS7003;54688;52.376;16.744;2023-03-07T12:34:37;43;32;
67892;PMS7003;54688;52.376;16.744;2023-03-07T12:37:45;33;28;
67892;PMS7003;54688;52.376;16.744;2023-03-07T12:40:50;38;32;
67892;PMS7003;54688;52.376;16.744;2023-03-07T12:43:57;40;33;
67892;PMS7003;54688;52.376;16.744;2023-03-07T12:47:07;37;30;
67892;PMS7003;54688;52.376;16.744;2023-03-07T12:50:14;42;32;
67892;PMS7003;54688;52.376;16.744;2023-03-07T12:53:27;39;31;
67892;PMS7003;54688;52.376;16.744;2023-03-07T12:56:42;33;30;
67892;PMS7003;54688;52.376;16.744;2023-03-07T12:59:44;33;29;
67892;PMS7003;54688;52.376;16.744;2023-03-07T13:02:52;41;30;
67892;PMS7003;54688;52.376;16.744;2023-03-07T13:05:56;37;31;
67892;PMS7003;54688;52.376;16.744;2023-03-07T13:09:00;41;33;
67892;PMS7003;54688;52.376;16.744;2023-03-07T13:12:20;41;31;
67892;PMS7003;54688;52.376;16.744;2023-03-07T13:16:03;33;30;
67892;PMS7003;54688;52.376;16.744;2023-03-07T13:20:37;40;34;
67892;PMS7003;54688;52.376;16.744;2023-03-07T13:23:40;60;44;
67892;PMS7003;54688;52.376;16.744;2023-03-07T13:26:43;49;37;
67892;PMS7003;54688;52.376;16.744;2023-03-07T13:30:14;44;36;
67892;PMS7003;54688;52.376;16.744;2023-03-07T13:33:25;52;38;
67892;PMS7003;54688;52.376;16.744;2023-03-07T13:36:33;53;41;
67892;PMS7003;54688;52.376;16.744;2023-03-07T13:39:36;38;32;
67892;PMS7003;54688;52.376;16.744;2023-03-07T13:42:47;32;28;
67892;PMS7003;54688;52.376;16.744;2023-03-07T13:45:51;39;32;
67892;PMS7003;54688;52.376;16.744;2023-03-07T13:48:58;31;29;
67892;PMS7003;54688;52.376;16.744;2023-03-07T13:53:10;37;30;
67892;PMS7003;54688;52.376;16.744;2023-03-07T13:56:19;42;34;
67892;PMS7003;54688;52.376;16.744;2023-03-07T13:59:21;39;32;
67892;PMS7003;54688;52.376;16.744;2023-03-07T14:05:21;33;30;
67892;PMS7003;54688;52.376;16.744;2023-03-07T14:08:27;38;32;
67892;PMS7003;54688;52.376;16.744;2023-03-07T14:11:39;33;30;
67892;PMS7003;54688;52.376;16.744;2023-03-07T14:14:50;36;33;
67892;PMS7003;54688;52.376;16.744;2023-03-07T14:18:06;43;36;
67892;PMS7003;54688;52.376;16.744;2023-03-07T14:21:17;38;31;
67892;PMS7003;54688;52.376;16.744;2023-03-07T14:24:30;34;27;
67892;PMS7003;54688;52.376;16.744;2023-03-07T14:27:48;33;29;
67892;PMS7003;54688;52.376;16.744;2023-03-07T14:30:53;39;32;
67892;PMS7003;54688;52.376;16.744;2023-03-07T14:33:56;35;30;
67892;PMS7003;54688;52.376;16.744;2023-03-07T14:36:59;38;27;
67892;PMS7003;54688;52.376;16.744;2023-03-07T14:40:16;35;30;
67892;PMS7003;54688;52.376;16.744;2023-03-07T14:43:32;40;32;
67892;PMS7003;54688;52.376;16.744;2023-03-07T14:46:47;49;36;
67892;PMS7003;54688;52.376;16.744;2023-03-07T14:50:01;50;36;
67892;PMS7003;54688;52.376;16.744;2023-03-07T14:53:13;44;31;
67892;PMS7003;54688;52.376;16.744;2023-03-07T14:56:20;31;29;
67892;PMS7003;54688;52.376;16.744;2023-03-07T14:59:24;33;25;
67892;PMS7003;54688;52.376;16.744;2023-03-07T15:02:26;35;30;
67892;PMS7003;54688;52.376;16.744;2023-03-07T15:05:31;34;29;
67892;PMS7003;54688;52.376;16.744;2023-03-07T15:08:34;31;26;
67892;PMS7003;54688;52.376;16.744;2023-03-07T15:11:38;36;27;
67892;PMS7003;54688;52.376;16.744;2023-03-07T15:14:44;35;28;
67892;PMS7003;54688;52.376;16.744;2023-03-07T15:17:47;33;28;
67892;PMS7003;54688;52.376;16.744;2023-03-07T15:20:51;33;29;
67892;PMS7003;54688;52.376;16.744;2023-03-07T15:23:56;39;33;
67892;PMS7003;54688;52.376;16.744;2023-03-07T15:26:59;34;29;
67892;PMS7003;54688;52.376;16.744;2023-03-07T15:30:25;42;30;
67892;PMS7003;54688;52.376;16.744;2023-03-07T15:33:29;33;30;
67892;PMS7003;54688;52.376;16.744;2023-03-07T15:36:32;31;26;
67892;PMS7003;54688;52.376;16.744;2023-03-07T15:39:34;45;30;
67892;PMS7003;54688;52.376;16.744;2023-03-07T15:42:46;40;30;
67892;PMS7003;54688;52.376;16.744;2023-03-07T15:46:00;28;25;
67892;PMS7003;54688;52.376;16.744;2023-03-07T15:49:03;29;27;
67892;PMS7003;54688;52.376;16.744;2023-03-07T15:52:06;41;29;
67892;PMS7003;54688;52.376;16.744;2023-03-07T15:55:17;30;29;
67892;PMS7003;54688;52.376;16.744;2023-03-07T15:58:19;29;24;
67892;PMS7003;54688;52.376;16.744;2023-03-07T16:01:23;41;33;
67892;PMS7003;54688;52.376;16.744;2023-03-07T16:04:34;42;34;
67892;PMS7003;54688;52.376;16.744;2023-03-07T16:07:37;28;20;
67892;PMS7003;54688;52.376;16.744;2023-03-07T16:10:45;24;20;
67892;PMS7003;54688;52.376;16.744;2023-03-07T16:13:47;32;27;
67892;PMS7003;54688;52.376;16.744;2023-03-07T16:16:49;29;27;
67892;PMS7003;54688;52.376;16.744;2023-03-07T16:19:51;25;22;
67892;PMS7003;54688;52.376;16.744;2023-03-07T16:22:54;31;26;
67892;PMS7003;54688;52.376;16.744;2023-03-07T16:25:58;29;24;
67892;PMS7003;54688;52.376;16.744;2023-03-07T16:29:00;22;17;
67892;PMS7003;54688;52.376;16.744;2023-03-07T16:32:03;32;27;
67892;PMS7003;54688;52.376;16.744;2023-03-07T16:35:12;9;6;
67892;PMS7003;54688;52.376;16.744;2023-03-07T16:38:15;6;4;
67892;PMS7003;54688;52.376;16.744;2023-03-07T16:41:18;2;2;
67892;PMS7003;54688;52.376;16.744;2023-03-07T16:44:21;6;4;
67892;PMS7003;54688;52.376;16.744;2023-03-07T16:47:23;4;4;
67892;PMS7003;54688;52.376;16.744;2023-03-07T16:50:28;10;7;
67892;PMS7003;54688;52.376;16.744;2023-03-07T16:53:31;8;8;
67892;PMS7003;54688;52.376;16.744;2023-03-07T16:56:35;10;8;
67892;PMS7003;54688;52.376;16.744;2023-03-07T16:59:42;7;5;
67892;PMS7003;54688;52.376;16.744;2023-03-07T17:02:46;5;5;
67892;PMS7003;54688;52.376;16.744;2023-03-07T17:05:49;9;8;
67892;PMS7003;54688;52.376;16.744;2023-03-07T17:08:52;8;5;
67892;PMS7003;54688;52.376;16.744;2023-03-07T17:11:54;12;8;
67892;PMS7003;54688;52.376;16.744;2023-03-07T17:14:57;8;7;
67892;PMS7003;54688;52.376;16.744;2023-03-07T17:17:59;12;9;
67892;PMS7003;54688;52.376;16.744;2023-03-07T17:21:01;10;9;
67892;PMS7003;54688;52.376;16.744;2023-03-07T17:24:04;14;5;
67892;PMS7003;54688;52.376;16.744;2023-03-07T17:27:05;17;11;
67892;PMS7003;54688;52.376;16.744;2023-03-07T17:30:19;11;10;
67892;PMS7003;54688;52.376;16.744;2023-03-07T17:33:22;9;8;
67892;PMS7003;54688;52.376;16.744;2023-03-07T17:36:24;19;14;
67892;PMS7003;54688;52.376;16.744;2023-03-07T17:39:26;13;12;
67892;PMS7003;54688;52.376;16.744;2023-03-07T17:42:28;8;7;
67892;PMS7003;54688;52.376;16.744;2023-03-07T17:45:29;18;12;
67892;PMS7003;54688;52.376;16.744;2023-03-07T17:48:31;17;10;
67892;PMS7003;54688;52.376;16.744;2023-03-07T17:51:33;12;9;
67892;PMS7003;54688;52.376;16.744;2023-03-07T17:57:35;13;9;
67892;PMS7003;54688;52.376;16.744;2023-03-07T18:00:37;8;8;
67892;PMS7003;54688;52.376;16.744;2023-03-07T18:03:40;14;9;
67892;PMS7003;54688;52.376;16.744;2023-03-07T18:06:43;11;10;
67892;PMS7003;54688;52.376;16.744;2023-03-07T18:09:44;12;8;
67892;PMS7003;54688;52.376;16.744;2023-03-07T18:12:46;9;8;
67892;PMS7003;54688;52.376;16.744;2023-03-07T18:15:49;9;7;
67892;PMS7003;54688;52.376;16.744;2023-03-07T18:18:51;9;9;
67892;PMS7003;54688;52.376;16.744;2023-03-07T18:21:53;12;11;
67892;PMS7003;54688;52.376;16.744;2023-03-07T18:24:56;10;10;
67892;PMS7003;54688;52.376;16.744;2023-03-07T18:27:59;17;10;
67892;PMS7003;54688;52.376;16.744;2023-03-07T18:31:04;22;17;
67892;PMS7003;54688;52.376;16.744;2023-03-07T18:34:06;20;16;
67892;PMS7003;54688;52.376;16.744;2023-03-07T18:37:08;22;16;
67892;PMS7003;54688;52.376;16.744;2023-03-07T18:40:11;20;13;
67892;PMS7003;54688;52.376;16.744;2023-03-07T18:43:13;17;11;
67892;PMS7003;54688;52.376;16.744;2023-03-07T18:46:17;19;13;
67892;PMS7003;54688;52.376;16.744;2023-03-07T18:49:19;16;13;
67892;PMS7003;54688;52.376;16.744;2023-03-07T18:52:21;17;15;
67892;PMS7003;54688;52.376;16.744;2023-03-07T18:55:23;13;13;
67892;PMS7003;54688;52.376;16.744;2023-03-07T19:01:28;28;22;
67892;PMS7003;54688;52.376;16.744;2023-03-07T19:04:30;17;15;
67892;PMS7003;54688;52.376;16.744;2023-03-07T19:07:32;27;17;
67892;PMS7003;54688;52.376;16.744;2023-03-07T19:10:35;13;11;
67892;PMS7003;54688;52.376;16.744;2023-03-07T19:13:38;13;12;
67892;PMS7003;54688;52.376;16.744;2023-03-07T19:16:40;25;16;
67892;PMS7003;54688;52.376;16.744;2023-03-07T19:19:42;14;11;
67892;PMS7003;54688;52.376;16.744;2023-03-07T19:22:44;18;15;
67892;PMS7003;54688;52.376;16.744;2023-03-07T19:25:46;17;11;
67892;PMS7003;54688;52.376;16.744;2023-03-07T19:28:50;12;11;
67892;PMS7003;54688;52.376;16.744;2023-03-07T19:31:53;16;14;
67892;PMS7003;54688;52.376;16.744;2023-03-07T19:34:54;14;11;
67892;PMS7003;54688;52.376;16.744;2023-03-07T19:37:58;16;15;
67892;PMS7003;54688;52.376;16.744;2023-03-07T19:41:00;16;11;
67892;PMS7003;54688;52.376;16.744;2023-03-07T19:44:02;20;15;
67892;PMS7003;54688;52.376;16.744;2023-03-07T19:47:05;17;12;
67892;PMS7003;54688;52.376;16.744;2023-03-07T19:50:08;11;10;
67892;PMS7003;54688;52.376;16.744;2023-03-07T19:53:11;16;11;
67892;PMS7003;54688;52.376;16.744;2023-03-07T19:56:16;16;13;
67892;PMS7003;54688;52.376;16.744;2023-03-07T20:02:18;10;10;
67892;PMS7003;54688;52.376;16.744;2023-03-07T20:05:21;17;11;
67892;PMS7003;54688;52.376;16.744;2023-03-07T20:08:23;14;11;
67892;PMS7003;54688;52.376;16.744;2023-03-07T20:11:27;15;12;
67892;PMS7003;54688;52.376;16.744;2023-03-07T20:14:29;18;15;
67892;PMS7003;54688;52.376;16.744;2023-03-07T20:17:31;17;13;
67892;PMS7003;54688;52.376;16.744;2023-03-07T20:20:33;22;15;
67892;PMS7003;54688;52.376;16.744;2023-03-07T20:23:37;24;15;
67892;PMS7003;54688;52.376;16.744;2023-03-07T20:26:39;16;14;
67892;PMS7003;54688;52.376;16.744;2023-03-07T20:29:42;22;16;
67892;PMS7003;54688;52.376;16.744;2023-03-07T20:32:44;18;16;
67892;PMS7003;54688;52.376;16.744;2023-03-07T20:35:46;17;12;